Historyczne dane pomiarowe

Dodano dane terminowe – wersja testowa.

Dane z okresu 1951-2019

Wersja bazy: 1.34 [2019-03-16, lista zmian], aktualizacja planowana na 2019-04-15

Dane meteo z obszaru Polski uzyskane na podstawie danych udostępnionych przez Instytut Meteorologii i Gospodarki Wodnej – Państwowy Instytut Badawczy.

 

Wybierz Datę:    

       

TemperaturaWilgotnośćZachmurzenieWiatrCiśnienieWidzialnośćZjawiska
 Data    tng td wb rh cc ccl cl cm ch dir g1 g2 mslp ppp      
1999-08-13 00:00:00 12.8--- 11.4 12.091wxwx1wx--1010.9 988.7 0.0---wx
1999-08-13 01:00:00 12.1--- 10.7 11.391wxwx0wx--1010.9 988.7----wx
1999-08-13 02:00:00 13.0--- 11.6 12.291wxwxwx0wx--1010.9 988.7----wx
1999-08-13 03:00:00 13.8--- 12.4 13.091wxwxwx0wx--1010.8 988.7----wx
1999-08-13 04:00:00 14.3--- 13.1 13.693wxwxwx2wx--1010.6 988.6----wx
1999-08-13 05:00:00 14.7--- 14.0 14.396wxwxwx0wx--1010.5 988.5----wx
1999-08-13 06:00:00 16.1--- 14.5 15.190wxwxwxwx3wx--1010.3 988.4 0.0---wx
1999-08-13 07:00:00 17.0--- 14.4 15.485wxwxwxwx1wx--1010.2 988.4----wx
1999-08-13 08:00:00 18.6--- 13.7 15.673wxwxwxwx3wx--1009.9 988.2----wx
1999-08-13 09:00:00 19.2--- 12.9 15.467wxwxwxwx4wx--1009.9 988.2----wx
1999-08-13 10:00:00 19.2--- 13.6 15.870wxwxwx4wx--1010.0 988.3----wx
1999-08-13 11:00:00 20.0--- 13.4 16.066wxwxwxwx5wx--1009.8 988.2----wx
1999-08-13 12:00:00 20.0--- 12.3 15.461wxwxwxwx5wx--1009.8 988.2 0.0---wx
1999-08-13 13:00:00 18.2--- 13.2 15.273wxwxwx3wx--1009.8 988.1----wx
1999-08-13 14:00:00 18.4--- 12.7 15.069wxwxwx4wx--1009.7 988.0----wx
1999-08-13 15:00:00 20.8--- 15.4 17.471wxwxwx2wx--1009.0 987.5----wx
1999-08-13 16:00:00 20.0--- 11.5 15.058wxwxwx2wx--1008.9 987.3----wx
1999-08-13 17:00:00 18.6--- 13.3 15.471wxwxwx3wx--1008.6 986.9----wx
1999-08-13 18:00:00 16.0--- 13.0 14.282wxwxwx2wx--1008.9 987.0 0.0---wx
1999-08-13 19:00:00 15.4--- 13.0 14.086wxwxwx0wx--1009.1 987.2----wx
1999-08-13 20:00:00 14.8--- 13.1 13.890wxwxwx0wx--1009.2 987.2----wx
1999-08-13 21:00:00 14.4--- 12.7 13.490wxwxwx0wx--1008.9 986.9----wx
1999-08-13 22:00:00 14.0--- 12.3 13.089wxwx0wx--1008.7 986.7----wx
1999-08-13 23:00:00 13.6--- 12.2 12.891wxwx0wx--1008.7 986.6----wx

 

Źródłem pochodzenia danych jest Instytut Meteorologii i Gospodarki Wodnej – Państwowy Instytut Badawczy. Dane Instytutu Meteorologii i Gospodarki Wodnej – Państwowego Instytutu Badawczego zostały przetworzone.

Dane źródłowe można odnaleźć na stronie https://dane.imgw.pl